Time;durP1;ratioP1;P1;durP2;ratioP2;P2;SDS_P1;SDS_P2;PMS_P1;PMS_P2;Temp;Humidity;BMP_temperature;BMP_pressure;BME280_temperature;BME280_humidity;BME280_pressure;Samples;Min_cycle;Max_cycle;Signal;HPM_P1;HPM_P2
2021/09/07 00:01:35;;;;;;;25.67;14.40;;;;;;;14.93;73.83;100396.59;5087949;28;20497;-74
2021/09/07 00:04:00;;;;;;;22.73;14.40;;;;;;;14.87;73.58;100395.19;5088425;28;20500;-74
2021/09/07 00:06:25;;;;;;;22.80;15.68;;;;;;;14.89;73.40;100387.97;5087139;28;20028;-74
2021/09/07 00:08:51;;;;;;;28.17;14.75;;;;;;;14.89;73.67;100379.13;5089174;28;20043;-74
2021/09/07 00:11:17;;;;;;;22.23;14.82;;;;;;;14.87;73.57;100389.88;5087720;28;20032;-74
2021/09/07 00:13:43;;;;;;;20.83;14.25;;;;;;;14.84;73.31;100391.81;5088178;28;20086;-74
2021/09/07 00:16:08;;;;;;;19.27;13.60;;;;;;;14.80;73.37;100389.34;5088236;28;20028;-74
2021/09/07 00:18:34;;;;;;;22.23;14.73;;;;;;;14.77;73.52;100384.22;5087903;28;20040;-74
2021/09/07 00:20:59;;;;;;;25.13;15.60;;;;;;;14.74;73.83;100389.72;5086211;28;20040;-75
2021/09/07 00:23:24;;;;;;;20.63;12.70;;;;;;;14.69;74.63;100382.94;5087361;28;20078;-74
2021/09/07 00:25:50;;;;;;;19.83;14.35;;;;;;;14.63;74.75;100386.81;5069920;28;20085;-74
2021/09/07 00:28:15;;;;;;;20.52;14.90;;;;;;;14.58;74.94;100378.25;5087760;28;20028;-75
2021/09/07 00:30:40;;;;;;;15.98;11.75;;;;;;;14.55;74.98;100379.28;5088605;28;20119;-74
2021/09/07 00:33:08;;;;;;;21.33;13.20;;;;;;;14.54;74.79;100376.69;5087341;28;20032;-75
2021/09/07 00:35:34;;;;;;;13.93;10.57;;;;;;;14.51;75.17;100371.53;5087568;28;20036;-74
2021/09/07 00:38:00;;;;;;;22.48;13.75;;;;;;;14.48;75.22;100374.38;5087629;28;20044;-75
2021/09/07 00:40:25;;;;;;;19.83;13.55;;;;;;;14.46;75.15;100374.44;5088054;28;20493;-75
2021/09/07 00:42:50;;;;;;;20.65;14.02;;;;;;;14.43;75.75;100379.09;5087805;28;20124;-75
2021/09/07 00:45:16;;;;;;;23.88;13.95;;;;;;;14.36;75.62;100383.84;5092025;28;20040;-75
2021/09/07 00:47:41;;;;;;;17.00;12.27;;;;;;;14.34;75.34;100383.09;5092360;28;20036;-75
2021/09/07 00:50:07;;;;;;;18.83;13.68;;;;;;;14.40;74.74;100380.09;5090401;28;20039;-75
2021/09/07 00:52:34;;;;;;;17.40;12.50;;;;;;;14.45;74.37;100382.47;5091809;28;20055;-75
2021/09/07 00:55:00;;;;;;;19.05;13.63;;;;;;;14.48;74.35;100383.19;5096351;28;20063;-74
2021/09/07 00:57:27;;;;;;;16.08;12.70;;;;;;;14.45;74.50;100383.34;5095560;28;20047;-74
2021/09/07 00:59:53;;;;;;;19.63;13.98;;;;;;;14.48;74.14;100382.34;5094506;28;20408;-73
2021/09/07 01:02:19;;;;;;;17.75;13.05;;;;;;;14.44;74.70;100384.28;5066342;28;20043;-74
2021/09/07 01:04:45;;;;;;;18.92;14.77;;;;;;;14.46;74.61;100384.22;5090625;28;20028;-74
2021/09/07 01:07:10;;;;;;;20.15;11.85;;;;;;;14.48;74.56;100393.78;5090734;28;20056;-74
2021/09/07 01:09:37;;;;;;;20.25;13.52;;;;;;;14.52;74.78;100381.19;5090392;28;20431;-73
2021/09/07 01:12:03;;;;;;;16.83;13.57;;;;;;;14.52;74.70;100375.88;5072688;28;20028;-74
2021/09/07 01:14:30;;;;;;;19.13;14.07;;;;;;;14.53;74.47;100369.66;5090760;28;20040;-73
2021/09/07 01:16:56;;;;;;;20.45;12.80;;;;;;;14.51;74.61;100366.22;5089148;28;20050;-74
2021/09/07 01:19:21;;;;;;;18.50;12.00;;;;;;;14.49;74.82;100363.66;5090319;28;20382;-74
2021/09/07 01:21:47;;;;;;;19.15;13.35;;;;;;;14.46;74.56;100358.53;5089190;28;20067;-74
2021/09/07 01:24:12;;;;;;;19.65;14.00;;;;;;;14.44;75.10;100371.00;5090188;28;20085;-74
2021/09/07 01:26:37;;;;;;;20.67;14.90;;;;;;;14.43;75.15;100369.31;5090464;28;20104;-73
2021/09/07 01:29:05;;;;;;;24.48;13.43;;;;;;;14.36;75.23;100366.13;5088550;28;20047;-75
2021/09/07 01:31:30;;;;;;;20.98;13.70;;;;;;;14.29;76.07;100372.72;5085541;28;20042;-75
2021/09/07 01:33:56;;;;;;;20.55;13.02;;;;;;;14.26;76.33;100369.41;5090502;28;20115;-74
2021/09/07 01:36:22;;;;;;;20.17;13.88;;;;;;;14.24;76.48;100358.88;5090597;28;20162;-74
2021/09/07 01:38:48;;;;;;;21.08;13.73;;;;;;;14.24;76.40;100360.66;5090391;28;20137;-74
2021/09/07 01:41:13;;;;;;;20.25;13.48;;;;;;;14.30;75.67;100361.19;5089818;28;20457;-74
2021/09/07 01:43:39;;;;;;;21.23;13.70;;;;;;;14.38;75.94;100361.63;5089917;28;20051;-74
2021/09/07 01:46:04;;;;;;;17.88;11.70;;;;;;;14.44;75.37;100363.06;5090492;28;20126;-74
2021/09/07 01:48:30;;;;;;;16.15;11.40;;;;;;;14.43;75.47;100361.34;5088881;28;20112;-74
2021/09/07 01:50:57;;;;;;;16.55;12.48;;;;;;;14.43;75.50;100363.16;5089483;28;20476;-73
2021/09/07 01:53:23;;;;;;;17.70;11.48;;;;;;;14.42;75.68;100356.13;5089433;28;20032;-73
2021/09/07 01:55:48;;;;;;;17.42;12.65;;;;;;;14.42;75.58;100351.66;5090079;28;20047;-75
2021/09/07 01:58:13;;;;;;;16.48;11.85;;;;;;;14.44;75.52;100359.56;5089702;28;20493;-74
2021/09/07 02:00:39;;;;;;;18.08;12.10;;;;;;;14.44;75.51;100359.56;5090378;28;20408;-74
2021/09/07 02:03:05;;;;;;;22.17;12.80;;;;;;;14.43;75.42;100360.50;5090070;28;20043;-74
2021/09/07 02:05:30;;;;;;;20.08;12.45;;;;;;;14.45;75.44;100353.28;5090126;28;20032;-72
2021/09/07 02:07:56;;;;;;;19.02;12.57;;;;;;;14.39;75.79;100352.69;5089977;28;20036;-72
2021/09/07 02:10:21;;;;;;;18.02;11.05;;;;;;;14.39;75.83;100349.19;5090538;28;20105;-74
2021/09/07 02:12:48;;;;;;;17.98;12.32;;;;;;;14.39;75.59;100347.41;5089614;28;20043;-73
2021/09/07 02:15:13;;;;;;;16.55;10.75;;;;;;;14.40;75.95;100345.63;5089199;28;20401;-73
2021/09/07 02:17:39;;;;;;;16.35;11.60;;;;;;;14.38;75.69;100342.19;5089886;28;20412;-74
2021/09/07 02:20:06;;;;;;;15.10;11.13;;;;;;;14.37;75.73;100333.38;5090277;28;20043;-74
2021/09/07 02:22:31;;;;;;;24.08;13.75;;;;;;;14.36;75.52;100333.47;5089141;28;20039;-74
2021/09/07 02:24:56;;;;;;;18.88;11.38;;;;;;;14.34;75.63;100335.34;5089597;28;20036;-74
2021/09/07 02:27:22;;;;;;;21.30;12.57;;;;;;;14.24;76.61;100337.66;5089281;28;20062;-74
2021/09/07 02:29:47;;;;;;;16.08;12.50;;;;;;;14.20;76.86;100352.03;5089607;28;20036;-74
2021/09/07 02:32:13;;;;;;;16.27;12.15;;;;;;;14.17;76.89;100336.28;5088728;28;20569;-74
2021/09/07 02:34:38;;;;;;;17.95;12.60;;;;;;;14.16;77.01;100334.56;5087957;28;20028;-74
2021/09/07 02:37:04;;;;;;;18.15;11.60;;;;;;;14.20;76.41;100330.81;5089584;28;20115;-73
2021/09/07 02:39:30;;;;;;;17.48;12.00;;;;;;;14.22;76.49;100336.88;5088880;28;20044;-73
2021/09/07 02:41:55;;;;;;;18.25;11.48;;;;;;;14.22;76.40;100336.03;5088746;28;20109;-73
2021/09/07 02:44:21;;;;;;;21.67;13.90;;;;;;;14.20;76.47;100327.28;5089055;28;20031;-74
2021/09/07 02:46:47;;;;;;;19.42;12.68;;;;;;;14.23;76.52;100332.44;5089067;28;20036;-75
2021/09/07 02:49:12;;;;;;;16.88;11.88;;;;;;;14.20;76.59;100329.94;5086256;28;20058;-73
2021/09/07 02:51:38;;;;;;;22.10;11.82;;;;;;;14.21;76.82;100337.81;5088345;28;20508;-74
2021/09/07 02:54:04;;;;;;;14.00;11.13;;;;;;;14.20;76.39;100337.91;5089914;28;20489;-73
2021/09/07 02:56:30;;;;;;;16.95;12.27;;;;;;;14.19;76.63;100334.41;5088955;28;20670;-74
2021/09/07 02:58:55;;;;;;;14.90;11.88;;;;;;;14.21;76.17;100331.69;5089440;28;20060;-73
2021/09/07 03:01:21;;;;;;;16.58;11.18;;;;;;;14.23;76.61;100329.78;5089121;28;20484;-74
2021/09/07 03:03:46;;;;;;;16.98;11.98;;;;;;;14.23;76.49;100329.78;5090891;28;20043;-73
2021/09/07 03:06:11;;;;;;;18.20;11.68;;;;;;;14.20;76.67;100330.81;5091404;28;20048;-73
2021/09/07 03:08:37;;;;;;;19.77;11.35;;;;;;;14.19;76.65;100337.06;5090108;28;20503;-74
2021/09/07 03:11:02;;;;;;;18.80;12.45;;;;;;;14.10;76.71;100330.47;5091310;28;20032;-74
2021/09/07 03:13:28;;;;;;;17.20;12.95;;;;;;;14.10;76.97;100327.81;5090278;28;20036;-72
2021/09/07 03:15:53;;;;;;;16.33;11.30;;;;;;;14.09;76.92;100330.56;5090315;28;20036;-72
2021/09/07 03:18:19;;;;;;;20.95;14.13;;;;;;;14.10;76.83;100329.59;5091161;28;20076;-72
2021/09/07 03:20:45;;;;;;;19.30;12.82;;;;;;;14.08;76.85;100328.84;5091709;28;20047;-72
2021/09/07 03:23:10;;;;;;;20.90;13.68;;;;;;;14.06;77.27;100330.72;5089108;28;20496;-73
2021/09/07 03:25:36;;;;;;;23.80;14.05;;;;;;;14.02;77.18;100334.47;5092756;28;20028;-72
2021/09/07 03:28:01;;;;;;;22.67;13.13;;;;;;;13.99;77.08;100326.69;5090275;28;20489;-73
2021/09/07 03:30:27;;;;;;;19.83;13.32;;;;;;;13.98;77.36;100332.91;5089195;28;20032;-73
2021/09/07 03:32:52;;;;;;;20.88;13.27;;;;;;;13.99;77.18;100327.53;5088342;28;20079;-74
2021/09/07 03:35:18;;;;;;;17.98;12.45;;;;;;;14.01;77.00;100330.13;5092290;28;20024;-74
2021/09/07 03:37:44;;;;;;;18.33;13.15;;;;;;;14.02;76.37;100334.47;5090808;28;20044;-74
2021/09/07 03:40:12;;;;;;;23.13;14.30;;;;;;;13.99;77.06;100338.16;5090371;28;20024;-73
2021/09/07 03:42:38;;;;;;;18.98;12.07;;;;;;;13.96;76.85;100333.88;5088769;28;20035;-73
2021/09/07 03:45:05;;;;;;;17.10;12.55;;;;;;;13.97;76.72;100337.38;5088719;28;20032;-74
2021/09/07 03:47:30;;;;;;;19.52;13.55;;;;;;;13.95;76.87;100329.53;5087148;28;20380;-73
2021/09/07 03:49:56;;;;;;;16.25;11.98;;;;;;;13.92;76.82;100328.81;5088300;28;20039;-73
2021/09/07 03:52:21;;;;;;;17.20;12.18;;;;;;;13.89;77.10;100327.19;5086757;28;20135;-73
2021/09/07 03:54:46;;;;;;;20.27;13.43;;;;;;;13.87;77.41;100321.13;5088578;28;20522;-74
2021/09/07 03:57:12;;;;;;;17.95;13.23;;;;;;;13.84;76.88;100321.28;5088374;28;20032;-74
2021/09/07 03:59:37;;;;;;;16.75;11.57;;;;;;;13.83;77.68;100321.34;5087257;28;20032;-74
2021/09/07 04:02:02;;;;;;;16.13;12.40;;;;;;;13.85;77.06;100327.44;5087446;28;20378;-74
2021/09/07 04:04:28;;;;;;;18.08;14.35;;;;;;;13.80;77.54;100322.38;5086549;28;20044;-73
2021/09/07 04:06:53;;;;;;;17.05;12.20;;;;;;;13.72;77.93;100322.78;5088415;28;20040;-73
2021/09/07 04:09:19;;;;;;;18.17;13.55;;;;;;;13.66;78.06;100325.78;5088376;28;20130;-73
2021/09/07 04:11:45;;;;;;;19.60;12.77;;;;;;;13.67;78.43;100316.03;5086782;28;20489;-73
2021/09/07 04:14:10;;;;;;;20.88;14.32;;;;;;;13.69;77.84;100324.78;5087462;28;20146;-73
2021/09/07 04:16:36;;;;;;;17.67;13.57;;;;;;;13.69;77.81;100322.13;5088627;28;20089;-74
2021/09/07 04:19:01;;;;;;;18.58;12.77;;;;;;;13.67;77.74;100327.47;5092002;28;20043;-74
2021/09/07 04:21:26;;;;;;;16.67;13.07;;;;;;;13.68;77.40;100325.69;5091057;28;20047;-74
2021/09/07 04:23:52;;;;;;;19.17;13.45;;;;;;;13.70;78.12;100331.75;5092509;28;20123;-73
2021/09/07 04:26:17;;;;;;;22.50;14.85;;;;;;;13.75;77.82;100335.03;5091926;28;20055;-73
2021/09/07 04:28:43;;;;;;;20.08;14.10;;;;;;;13.70;77.68;100334.41;5091697;28;20032;-74
2021/09/07 04:31:08;;;;;;;16.85;13.38;;;;;;;13.68;77.92;100333.63;5091607;28;20028;-73
2021/09/07 04:33:34;;;;;;;23.52;15.25;;;;;;;13.65;78.09;100331.16;5091751;28;20496;-73
2021/09/07 04:35:59;;;;;;;16.63;12.02;;;;;;;13.63;77.94;100331.22;5089513;28;20492;-72
2021/09/07 04:38:24;;;;;;;28.98;16.75;;;;;;;13.66;77.33;100330.22;5091304;28;20563;-73
2021/09/07 04:40:50;;;;;;;19.65;13.88;;;;;;;13.59;77.71;100328.84;5091882;28;20560;-73
2021/09/07 04:43:15;;;;;;;21.23;15.18;;;;;;;13.55;77.78;100329.94;5090833;28;20085;-74
2021/09/07 04:45:40;;;;;;;21.50;14.25;;;;;;;13.52;78.29;100326.50;5091941;28;20061;-72
2021/09/07 04:48:06;;;;;;;18.67;14.15;;;;;;;13.49;78.39;100325.81;5091748;28;20487;-72
2021/09/07 04:50:31;;;;;;;20.98;14.70;;;;;;;13.48;78.18;100332.91;5091793;28;20036;-73
2021/09/07 04:52:57;;;;;;;20.17;13.52;;;;;;;13.49;78.34;100339.91;5091165;28;20044;-73
2021/09/07 04:55:23;;;;;;;24.20;14.27;;;;;;;13.50;78.71;100332.81;5090254;28;20036;-72
2021/09/07 04:57:48;;;;;;;26.75;15.68;;;;;;;13.53;78.42;100328.22;5096007;28;20112;-71
2021/09/07 05:00:14;;;;;;;33.28;17.33;;;;;;;13.49;78.42;100329.31;5099329;28;20067;-71
2021/09/07 05:02:40;;;;;;;23.70;15.85;;;;;;;13.45;78.67;100321.63;5098309;28;20100;-72
2021/09/07 05:05:07;;;;;;;25.35;15.93;;;;;;;13.45;78.58;100322.47;5088658;28;20118;-71
2021/09/07 05:07:33;;;;;;;22.92;15.05;;;;;;;13.49;78.49;100326.69;5096648;28;20032;-71
2021/09/07 05:09:58;;;;;;;19.30;13.88;;;;;;;13.55;77.56;100336.09;5096089;28;20101;-72
2021/09/07 05:12:25;;;;;;;17.40;13.00;;;;;;;13.62;77.77;100339.28;5097064;28;20515;-72
2021/09/07 05:14:50;;;;;;;18.02;12.82;;;;;;;13.64;77.63;100343.56;5095461;28;20032;-71
2021/09/07 05:17:16;;;;;;;19.42;15.38;;;;;;;13.65;77.25;100331.16;5090317;28;20511;-71
2021/09/07 05:19:41;;;;;;;18.67;13.65;;;;;;;13.64;77.28;100335.59;5089905;28;20115;-71
2021/09/07 05:22:06;;;;;;;22.90;13.63;;;;;;;13.61;77.50;100326.94;5089731;28;20067;-71
2021/09/07 05:24:32;;;;;;;21.38;14.77;;;;;;;13.59;77.73;100334.16;5089804;28;20054;-71
2021/09/07 05:26:57;;;;;;;22.73;14.73;;;;;;;13.58;77.29;100341.22;5088433;28;20036;-71
2021/09/07 05:29:23;;;;;;;19.15;13.38;;;;;;;13.61;77.83;100340.19;5089625;28;20157;-74
2021/09/07 05:31:48;;;;;;;22.27;14.25;;;;;;;13.63;78.05;100335.69;5089470;28;20036;-74
2021/09/07 05:34:13;;;;;;;23.10;16.00;;;;;;;13.62;77.71;100339.28;5090593;28;20032;-73
2021/09/07 05:36:39;;;;;;;21.58;14.85;;;;;;;13.68;77.10;100333.63;5089114;28;20386;-73
2021/09/07 05:39:04;;;;;;;20.23;14.57;;;;;;;13.71;77.35;100330.84;5090558;28;20493;-73
2021/09/07 05:41:29;;;;;;;19.77;12.27;;;;;;;13.78;76.77;100332.19;5089229;28;20059;-73
2021/09/07 05:43:55;;;;;;;21.25;14.43;;;;;;;13.81;77.02;100334.72;5090916;28;20036;-75
2021/09/07 05:46:20;;;;;;;21.80;14.27;;;;;;;13.85;77.04;100333.59;5079538;28;20028;-74
2021/09/07 05:48:46;;;;;;;27.27;16.50;;;;;;;13.90;76.52;100347.44;5088488;28;20374;-72
2021/09/07 05:51:11;;;;;;;20.13;14.00;;;;;;;13.98;76.87;100352.34;5088436;28;20047;-73
2021/09/07 05:53:39;;;;;;;26.33;14.00;;;;;;;14.09;76.86;100343.81;5090223;28;20111;-74
2021/09/07 05:56:05;;;;;;;22.35;15.43;;;;;;;14.14;76.88;100350.56;5089399;28;20036;-72
2021/09/07 05:58:30;;;;;;;19.85;14.40;;;;;;;14.19;76.68;100345.00;5088896;28;20584;-73
2021/09/07 06:00:55;;;;;;;19.67;14.88;;;;;;;14.25;76.27;100354.41;5087818;28;20074;-73
2021/09/07 06:03:21;;;;;;;18.27;12.43;;;;;;;14.26;76.23;100351.69;5089108;28;20060;-72
2021/09/07 06:05:46;;;;;;;17.85;13.55;;;;;;;14.27;76.10;100345.44;5089495;28;20135;-71
2021/09/07 06:08:11;;;;;;;22.67;14.65;;;;;;;14.28;76.04;100349.81;5089546;28;20557;-72
2021/09/07 06:10:37;;;;;;;20.60;15.13;;;;;;;14.31;76.39;100354.94;5084966;28;20401;-73
2021/09/07 06:13:05;;;;;;;21.90;14.70;;;;;;;14.33;76.25;100350.41;5088366;27;20024;-73
2021/09/07 06:15:30;;;;;;;30.42;15.18;;;;;;;14.40;76.25;100356.22;5087646;28;20040;-71
2021/09/07 06:17:56;;;;;;;22.92;14.45;;;;;;;14.44;76.21;100360.41;5087441;28;20068;-72
2021/09/07 06:20:23;;;;;;;23.35;15.50;;;;;;;14.48;75.84;100356.66;5089263;28;20043;-71
2021/09/07 06:22:48;;;;;;;25.33;15.90;;;;;;;14.52;75.51;100359.97;5087865;28;20378;-71
2021/09/07 06:25:13;;;;;;;19.42;14.27;;;;;;;14.58;75.42;100357.88;5088205;28;20039;-71
2021/09/07 06:27:39;;;;;;;22.23;14.18;;;;;;;14.69;75.33;100365.22;5087887;28;20416;-72
2021/09/07 06:30:05;;;;;;;22.65;17.25;;;;;;;14.76;74.89;100365.72;5088044;28;20028;-71
2021/09/07 06:32:31;;;;;;;20.95;14.52;;;;;;;14.84;74.76;100360.84;5088752;28;20038;-71
2021/09/07 06:34:58;;;;;;;22.55;14.88;;;;;;;14.90;74.78;100375.56;5090326;28;20203;-71
2021/09/07 06:37:23;;;;;;;20.35;14.85;;;;;;;14.97;73.58;100374.25;5090180;28;20032;-72
2021/09/07 06:39:49;;;;;;;21.45;15.95;;;;;;;15.06;73.87;100379.00;5089693;28;20051;-72
2021/09/07 06:42:15;;;;;;;24.65;14.40;;;;;;;15.15;73.76;100374.97;5088970;28;20111;-72
2021/09/07 06:44:40;;;;;;;22.02;16.35;;;;;;;15.27;73.25;100370.75;5090404;28;20032;-72
2021/09/07 06:47:06;;;;;;;19.13;14.88;;;;;;;15.33;73.14;100373.88;5089338;28;20105;-72
2021/09/07 06:49:31;;;;;;;24.50;17.23;;;;;;;15.42;72.64;100364.50;5089664;28;20114;-71
2021/09/07 06:51:57;;;;;;;24.85;16.30;;;;;;;15.49;72.56;100368.50;5089020;28;20119;-71
2021/09/07 06:54:22;;;;;;;20.70;13.50;;;;;;;15.58;72.67;100365.31;5089727;28;20047;-71
2021/09/07 06:56:48;;;;;;;21.65;15.73;;;;;;;15.69;72.63;100372.63;5089548;28;20028;-71
2021/09/07 06:59:13;;;;;;;21.60;15.10;;;;;;;15.84;72.13;100366.38;5088856;28;20096;-72
2021/09/07 07:01:38;;;;;;;22.17;16.08;;;;;;;15.99;72.22;100364.56;5089303;28;20032;-71
2021/09/07 07:04:04;;;;;;;19.23;12.95;;;;;;;16.12;72.28;100366.47;5088958;28;20057;-72
2021/09/07 07:06:29;;;;;;;18.95;14.48;;;;;;;16.29;72.39;100363.59;5083588;27;20373;-71
2021/09/07 07:08:54;;;;;;;20.33;13.48;;;;;;;16.44;72.08;100367.94;5089213;28;20123;-71
2021/09/07 07:11:20;;;;;;;20.17;13.55;;;;;;;16.58;72.15;100368.84;5088363;28;20056;-71
2021/09/07 07:13:45;;;;;;;18.98;13.65;;;;;;;16.72;72.19;100358.16;5088745;28;20497;-71
2021/09/07 07:16:10;;;;;;;19.40;15.35;;;;;;;16.88;72.12;100356.25;5088295;28;20027;-71
2021/09/07 07:18:36;;;;;;;22.50;15.77;;;;;;;17.03;71.18;100365.00;5085077;28;20043;-72
2021/09/07 07:21:02;;;;;;;18.02;13.93;;;;;;;17.21;70.61;100370.06;5088933;28;20063;-71
2021/09/07 07:23:27;;;;;;;20.85;14.65;;;;;;;17.35;70.54;100376.16;5088842;28;20042;-71
2021/09/07 07:25:52;;;;;;;20.25;15.23;;;;;;;17.52;69.74;100376.81;5089214;28;20373;-72
2021/09/07 07:28:18;;;;;;;27.17;16.60;;;;;;;17.69;68.95;100372.97;5088867;28;20085;-72
2021/09/07 07:30:43;;;;;;;18.75;14.30;;;;;;;17.85;68.10;100376.31;5088699;28;20405;-72
2021/09/07 07:33:09;;;;;;;26.48;17.23;;;;;;;17.99;67.51;100376.22;5071184;28;20036;-72
2021/09/07 07:35:36;;;;;;;30.65;17.33;;;;;;;18.17;67.20;100375.84;5090303;28;20101;-72
2021/09/07 07:38:01;;;;;;;28.65;19.08;;;;;;;18.32;66.83;100374.75;5091402;28;20036;-71
2021/09/07 07:40:27;;;;;;;25.95;14.88;;;;;;;18.52;67.22;100372.44;5087123;28;20032;-71
2021/09/07 07:42:52;;;;;;;22.38;14.38;;;;;;;18.67;67.53;100377.50;5087813;28;20420;-72
2021/09/07 07:45:17;;;;;;;19.48;14.25;;;;;;;18.87;66.31;100388.56;5089345;28;20043;-72
2021/09/07 07:47:44;;;;;;;22.90;17.13;;;;;;;19.05;65.71;100389.00;5088619;28;20024;-70
2021/09/07 07:50:10;;;;;;;25.33;18.63;;;;;;;19.22;65.23;100382.41;5089625;28;20036;-71
2021/09/07 07:52:35;;;;;;;23.10;16.52;;;;;;;19.40;64.17;100389.03;5093985;28;20040;-72
2021/09/07 07:55:01;;;;;;;25.60;17.92;;;;;;;19.53;64.03;100389.78;5093014;28;20108;-71
2021/09/07 07:57:26;;;;;;;22.88;16.65;;;;;;;19.63;63.58;100384.56;5090954;28;20559;-45
2021/09/07 07:59:51;;;;;;;24.27;16.88;;;;;;;19.78;62.63;100381.72;5074567;28;20111;-47
2021/09/07 08:02:17;;;;;;;28.13;17.17;;;;;;;19.92;63.55;100387.69;5079430;28;20051;-51
2021/09/07 08:04:42;;;;;;;28.33;15.85;;;;;;;20.09;63.38;100385.50;5067438;28;20401;-46
2021/09/07 08:07:08;;;;;;;29.63;18.73;;;;;;;20.34;60.39;100385.25;5087155;28;20046;-45
2021/09/07 08:09:34;;;;;;;27.63;19.65;;;;;;;20.51;62.72;100389.22;5091156;27;20035;-47
2021/09/07 08:11:59;;;;;;;34.33;21.30;;;;;;;20.64;61.42;100382.91;5098588;27;20047;-45
2021/09/07 08:14:25;;;;;;;32.75;23.08;;;;;;;20.83;55.81;100376.91;5085819;28;20565;-46
2021/09/07 08:16:51;;;;;;;25.48;19.50;;;;;;;21.05;56.53;100373.28;5087072;28;20051;-45
2021/09/07 08:19:16;;;;;;;26.33;19.27;;;;;;;21.25;55.52;100376.97;5086662;27;20413;-49
2021/09/07 08:21:42;;;;;;;26.80;20.58;;;;;;;21.41;54.09;100369.31;5089726;27;20097;-46
2021/09/07 08:24:07;;;;;;;30.25;18.17;;;;;;;21.57;55.52;100366.19;5091049;27;20044;-46
2021/09/07 08:26:33;;;;;;;29.70;18.48;;;;;;;21.62;52.33;100367.50;5084470;28;20085;-50
2021/09/07 08:28:58;;;;;;;32.35;19.45;;;;;;;21.78;52.37;100368.84;5085484;28;20541;-50
2021/09/07 08:31:24;;;;;;;27.35;18.15;;;;;;;22.01;51.11;100373.06;5085344;28;20024;-45
2021/09/07 08:33:49;;;;;;;34.58;19.10;;;;;;;22.37;49.77;100369.94;5086515;28;20093;-48
2021/09/07 08:36:20;;;;;;;27.70;17.05;;;;;;;22.53;46.98;100381.03;5086071;28;20195;-52
2021/09/07 08:38:46;;;;;;;28.23;17.55;;;;;;;22.58;46.49;100375.25;5086069;28;20048;-59
2021/09/07 08:41:21;;;;;;;28.40;16.92;;;;;;;22.79;46.67;100373.31;5085362;28;20441;-58
2021/09/07 08:43:51;;;;;;;26.90;18.10;;;;;;;22.90;45.52;100369.63;5085997;28;20787;-60
2021/09/07 08:46:18;;;;;;;23.20;16.73;;;;;;;22.91;45.96;100374.00;5085944;28;20036;-47
2021/09/07 08:48:44;;;;;;;22.25;15.63;;;;;;;23.09;42.98;100371.50;5086413;28;20031;-72
2021/09/07 08:51:10;;;;;;;26.27;15.70;;;;;;;23.25;45.16;100369.06;5084529;28;20614;-70
2021/09/07 08:53:35;;;;;;;25.00;15.55;;;;;;;23.38;45.49;100367.94;5079360;28;20127;-72
2021/09/07 08:56:04;;;;;;;25.08;17.08;;;;;;;23.47;45.31;100372.44;5082082;28;20498;-71
2021/09/07 08:58:30;;;;;;;32.60;17.20;;;;;;;23.52;44.94;100376.41;5071868;28;20066;-71
2021/09/07 09:00:55;;;;;;;28.65;16.33;;;;;;;23.47;44.43;100372.44;5066227;28;20119;-71
2021/09/07 09:03:20;;;;;;;27.75;16.98;;;;;;;23.55;43.80;100384.22;5084169;28;20040;-70
2021/09/07 09:05:50;;;;;;;21.67;15.77;;;;;;;23.73;42.85;100372.72;5084410;28;20050;-71
2021/09/07 09:08:17;;;;;;;22.50;15.60;;;;;;;23.87;41.56;100374.91;5086190;28;20036;-71
2021/09/07 09:10:44;;;;;;;21.13;16.13;;;;;;;23.98;41.50;100376.59;5085479;28;20067;-71
2021/09/07 09:13:15;;;;;;;20.50;14.40;;;;;;;24.22;38.97;100373.38;5085105;28;20040;-71
2021/09/07 09:16:01;;;;;;;20.17;14.45;;;;;;;24.62;36.75;100375.72;5085566;28;20039;-72
2021/09/07 09:18:42;;;;;;;19.83;13.68;;;;;;;25.01;33.86;100364.66;5085561;28;20036;-71
2021/09/07 09:21:27;;;;;;;20.90;15.32;;;;;;;25.55;33.12;100363.75;5083154;28;20036;-72
2021/09/07 09:24:22;;;;;;;15.90;13.70;;;;;;;26.19;33.69;100367.00;5085612;28;20093;-72
2021/09/07 09:26:58;;;;;;;17.88;13.07;;;;;;;27.01;32.26;100364.53;5064230;28;20865;-71
2021/09/07 09:29:31;;;;;;;15.85;13.55;;;;;;;27.97;31.50;100364.63;5085265;28;20063;-73
2021/09/07 09:32:03;;;;;;;15.53;12.80;;;;;;;28.99;30.53;100355.63;5085293;28;20529;-73
2021/09/07 09:34:29;;;;;;;15.80;14.07;;;;;;;29.62;30.04;100354.41;5086486;28;20028;-71
2021/09/07 09:36:59;;;;;;;20.48;13.43;;;;;;;30.32;28.84;100352.28;5085267;28;20040;-74
2021/09/07 09:39:48;;;;;;;17.67;13.15;;;;;;;30.87;28.03;100356.31;5072853;28;20129;-73
2021/09/07 09:42:28;;;;;;;17.58;13.73;;;;;;;30.83;28.48;100349.53;5059102;28;20111;-72
2021/09/07 09:45:01;;;;;;;21.05;13.30;;;;;;;30.98;28.61;100354.94;5064763;28;20045;-73
2021/09/07 09:47:38;;;;;;;15.35;11.88;;;;;;;31.41;27.91;100360.38;5065273;28;20029;-73
2021/09/07 09:50:04;;;;;;;18.13;13.50;;;;;;;31.32;28.11;100348.72;5048138;28;20144;-72
2021/09/07 09:52:34;;;;;;;13.38;10.82;;;;;;;31.72;28.03;100348.19;5062583;28;20034;-72
2021/09/07 09:54:59;;;;;;;14.30;11.48;;;;;;;31.17;28.59;100350.72;5065104;28;20044;-73
2021/09/07 09:57:26;;;;;;;17.20;11.80;;;;;;;31.77;27.96;100352.00;5063253;28;20051;-71
2021/09/07 09:59:53;;;;;;;16.92;13.77;;;;;;;31.70;28.37;100347.56;5064186;28;20555;-71
2021/09/07 10:02:19;;;;;;;14.32;11.00;;;;;;;32.29;26.96;100350.66;5063083;28;20036;-71
2021/09/07 10:04:45;;;;;;;16.92;10.80;;;;;;;32.82;26.99;100347.25;5059669;28;21115;-71
2021/09/07 10:07:11;;;;;;;21.83;13.00;;;;;;;32.65;27.36;100343.22;5064094;28;20106;-71
2021/09/07 10:09:38;;;;;;;20.67;14.32;;;;;;;32.41;28.14;100347.31;5063780;28;20040;-71
2021/09/07 10:12:12;;;;;;;27.95;13.52;;;;;;;32.49;27.85;100337.09;5062715;28;20592;-72
2021/09/07 10:14:43;;;;;;;18.98;12.35;;;;;;;32.38;27.92;100339.53;5062771;28;20459;-71
2021/09/07 10:20:04;;;;;;;16.13;13.13;;;;;;;32.63;27.67;100332.50;5064112;28;20032;-71
2021/09/07 10:25:58;;;;;;;13.02;11.65;;;;;;;32.46;28.21;100325.69;5063939;28;20102;-71
2021/09/07 10:28:42;;;;;;;15.33;12.90;;;;;;;32.52;28.03;100322.19;5061483;28;20044;-72
2021/09/07 10:31:19;;;;;;;14.38;10.60;;;;;;;32.75;27.13;100329.16;5062957;28;20293;-72
2021/09/07 10:33:47;;;;;;;14.02;11.57;;;;;;;32.83;26.82;100327.06;5062776;28;20060;-73
2021/09/07 10:36:15;;;;;;;16.20;11.82;;;;;;;32.09;28.08;100327.88;5063801;28;20145;-72
2021/09/07 10:38:48;;;;;;;18.33;13.48;;;;;;;32.19;27.93;100322.03;5063098;28;20040;-70
2021/09/07 10:41:28;;;;;;;18.17;11.07;;;;;;;32.29;27.77;100312.44;5062858;28;20110;-71
2021/09/07 10:44:04;;;;;;;14.60;11.73;;;;;;;30.95;29.37;100312.59;5063179;28;20467;-71
2021/09/07 10:46:56;;;;;;;16.27;11.27;;;;;;;30.02;31.54;100310.66;5063671;28;20063;-71
2021/09/07 10:49:50;;;;;;;14.77;11.70;;;;;;;29.63;31.80;100301.75;5063028;28;20058;-71
2021/09/07 10:52:29;;;;;;;15.30;11.65;;;;;;;29.59;32.63;100296.91;5062906;28;20043;-71
2021/09/07 10:55:07;;;;;;;17.85;12.23;;;;;;;28.96;32.97;100302.53;5065980;28;20032;-73
2021/09/07 10:57:36;;;;;;;13.93;11.23;;;;;;;28.50;34.27;100304.41;5063354;28;20440;-71
2021/09/07 11:00:13;;;;;;;16.40;13.00;;;;;;;28.02;34.45;100310.75;5063034;28;20039;-71
2021/09/07 11:02:42;;;;;;;16.50;12.13;;;;;;;27.55;35.92;100291.75;5062395;28;20043;-71
2021/09/07 11:05:36;;;;;;;13.38;11.45;;;;;;;27.55;35.92;100292.59;5062923;28;20036;-73
2021/09/07 11:08:02;;;;;;;15.65;10.50;;;;;;;27.17;36.32;100284.19;5060244;28;20032;-71
2021/09/07 11:10:42;;;;;;;16.77;11.27;;;;;;;27.15;37.51;100291.63;5062225;28;20410;-48
2021/09/07 11:13:30;;;;;;;16.67;10.10;;;;;;;26.98;38.11;100288.09;5062189;28;20132;-45
2021/09/07 11:16:02;;;;;;;12.88;10.25;;;;;;;26.84;38.09;100283.34;5082247;28;20048;-45